createdAt,value
2023-04-18T00:01:15.143Z,71.75
2023-04-18T00:03:46.001Z,71.89
2023-04-18T00:06:14.405Z,71.76
2023-04-18T00:08:42.371Z,71.83
2023-04-18T00:11:10.641Z,72.09
2023-04-18T00:13:39.548Z,72.23
2023-04-18T00:16:08.739Z,72.37
2023-04-18T00:18:37.184Z,72.21
2023-04-18T00:21:06.064Z,72.25
2023-04-18T00:23:34.477Z,72.15
2023-04-18T00:26:02.674Z,71.60
2023-04-18T00:28:30.603Z,71.55
2023-04-18T00:30:58.706Z,71.23
2023-04-18T00:33:26.766Z,70.87
2023-04-18T00:35:54.759Z,70.69
2023-04-18T00:38:22.714Z,70.48
2023-04-18T00:40:50.687Z,70.21
2023-04-18T00:43:18.739Z,69.99
2023-04-18T00:45:46.838Z,69.85
2023-04-18T00:48:14.960Z,69.71
2023-04-18T00:50:43.143Z,69.83
2023-04-18T00:53:11.224Z,69.48
2023-04-18T00:55:39.931Z,69.13
2023-04-18T00:58:08.313Z,68.91
2023-04-18T01:00:36.984Z,68.96
2023-04-18T01:03:05.183Z,69.02
2023-04-18T01:05:33.254Z,69.43
2023-04-18T01:08:01.509Z,69.44
2023-04-18T01:10:31.212Z,69.71
2023-04-18T01:13:13.518Z,69.64
2023-04-18T01:15:47.391Z,69.98
2023-04-18T01:18:17.128Z,70.25
2023-04-18T01:20:47.633Z,70.66
2023-04-18T01:23:17.269Z,70.90
2023-04-18T01:25:46.796Z,70.85
2023-04-18T01:28:15.357Z,70.77
2023-04-18T01:30:43.449Z,70.72
2023-04-18T01:33:11.507Z,70.81
2023-04-18T01:35:39.515Z,70.71
2023-04-18T01:38:07.434Z,70.73
2023-04-18T01:40:35.436Z,70.81
2023-04-18T01:43:03.406Z,70.67
2023-04-18T01:45:31.432Z,70.58
2023-04-18T01:47:59.535Z,70.64
2023-04-18T01:50:27.680Z,70.56
2023-04-18T01:52:55.671Z,70.47
2023-04-18T01:55:23.729Z,70.59
2023-04-18T01:57:51.773Z,70.72
2023-04-18T02:00:21.219Z,70.90
2023-04-18T02:02:50.598Z,71.10
2023-04-18T02:05:18.972Z,71.40
2023-04-18T02:07:47.810Z,71.89
2023-04-18T02:10:15.839Z,72.28
2023-04-18T02:12:44.191Z,72.69
2023-04-18T02:15:12.311Z,72.71
2023-04-18T02:17:42.037Z,72.57
2023-04-18T02:20:11.052Z,72.61
2023-04-18T02:22:39.705Z,72.32
2023-04-18T02:25:08.306Z,71.99
2023-04-18T02:27:36.752Z,71.83
2023-04-18T02:30:05.810Z,71.61
2023-04-18T02:32:35.139Z,71.54
2023-04-18T02:35:03.413Z,71.47
2023-04-18T02:37:31.463Z,71.55
2023-04-18T02:39:59.423Z,71.44
2023-04-18T02:42:31.559Z,71.59
2023-04-18T02:44:59.557Z,71.79
2023-04-18T02:47:28.205Z,71.78
2023-04-18T02:49:56.295Z,71.86
2023-04-18T02:52:25.590Z,72.05
2023-04-18T02:54:53.756Z,72.00
2023-04-18T02:57:26.055Z,72.08
2023-04-18T03:00:23.327Z,72.31
2023-04-18T03:03:10.670Z,72.51
2023-04-18T03:05:43.121Z,72.74
2023-04-18T03:08:11.798Z,72.68
2023-04-18T03:10:40.167Z,72.81
2023-04-18T03:13:08.813Z,72.86
2023-04-18T03:15:37.705Z,72.97
2023-04-18T03:18:06.265Z,72.97
2023-04-18T03:20:37.786Z,73.08
2023-04-18T03:23:07.937Z,73.09
2023-04-18T03:25:36.004Z,73.06
2023-04-18T03:28:04.762Z,73.12
2023-04-18T03:30:33.434Z,73.34
2023-04-18T03:33:02.920Z,73.24
2023-04-18T03:35:31.594Z,73.30
2023-04-18T03:37:59.793Z,73.17
2023-04-18T03:40:32.573Z,73.28
2023-04-18T03:43:05.659Z,73.27
2023-04-18T03:45:33.684Z,73.23
2023-04-18T03:48:01.891Z,73.10
2023-04-18T03:50:30.281Z,73.06
2023-04-18T03:52:58.533Z,73.13
2023-04-18T03:55:26.730Z,73.08
2023-04-18T03:57:55.208Z,73.20
2023-04-18T04:00:27.798Z,73.32
2023-04-18T04:03:02.038Z,73.53
2023-04-18T04:05:30.291Z,73.71
2023-04-18T04:07:58.457Z,73.86
2023-04-18T04:10:26.424Z,74.20
2023-04-18T04:12:54.410Z,74.37
2023-04-18T04:15:22.574Z,74.44
2023-04-18T04:17:55.765Z,74.39
2023-04-18T04:20:25.973Z,74.47
2023-04-18T04:23:01.421Z,74.44
2023-04-18T04:25:29.888Z,74.43
2023-04-18T04:28:01.653Z,74.39
2023-04-18T04:30:29.937Z,74.44
2023-04-18T04:32:58.453Z,74.38
2023-04-18T04:35:26.990Z,74.36
2023-04-18T04:37:54.989Z,74.52
2023-04-18T04:40:31.501Z,74.52
2023-04-18T04:43:26.147Z,74.36
2023-04-18T04:45:54.327Z,74.23
2023-04-18T04:48:25.329Z,74.42
2023-04-18T04:50:56.024Z,73.98
2023-04-18T04:53:26.434Z,72.65
2023-04-18T04:55:54.544Z,71.41
2023-04-18T04:58:23.294Z,70.42
2023-04-18T05:01:04.645Z,69.77
2023-04-18T05:03:32.954Z,69.34
2023-04-18T05:06:01.385Z,69.24
2023-04-18T05:08:29.498Z,68.96
2023-04-18T05:10:57.536Z,69.29
2023-04-18T05:13:25.455Z,68.62
2023-04-18T05:15:53.466Z,68.07
2023-04-18T05:18:21.402Z,67.94
2023-04-18T05:20:49.495Z,67.92
2023-04-18T05:23:17.423Z,68.04
2023-04-18T05:25:45.402Z,67.95
2023-04-18T05:28:13.431Z,67.56
2023-04-18T05:30:41.788Z,67.55
2023-04-18T05:33:09.853Z,67.77
2023-04-18T05:35:37.876Z,67.86
2023-04-18T05:38:06.197Z,67.67
2023-04-18T05:40:34.270Z,67.43
2023-04-18T05:43:02.231Z,67.30
2023-04-18T05:45:30.309Z,66.24
2023-04-18T05:47:58.328Z,65.10
2023-04-18T05:50:26.292Z,64.01
2023-04-18T05:52:54.263Z,63.11
2023-04-18T05:55:22.286Z,62.84
2023-04-18T05:57:50.207Z,62.17
2023-04-18T06:00:19.219Z,61.63
2023-04-18T06:02:47.363Z,61.34
2023-04-18T06:05:15.635Z,60.90
2023-04-18T06:07:43.909Z,60.61
2023-04-18T06:10:13.650Z,60.25
2023-04-18T06:12:42.366Z,59.43
2023-04-18T06:15:10.975Z,58.02
2023-04-18T06:17:39.746Z,56.36
2023-04-18T06:20:08.178Z,55.74
2023-04-18T06:22:36.179Z,55.44
2023-04-18T06:25:04.714Z,54.69
2023-04-18T06:27:32.733Z,54.21
2023-04-18T06:30:00.696Z,53.50
2023-04-18T06:32:28.713Z,52.52
2023-04-18T06:34:56.841Z,51.38
2023-04-18T06:37:25.027Z,51.20
2023-04-18T06:39:52.952Z,51.01
2023-04-18T06:42:22.595Z,50.84
2023-04-18T06:44:50.963Z,51.24
2023-04-18T06:47:18.937Z,50.31
2023-04-18T06:49:46.958Z,50.31
2023-04-18T06:52:14.881Z,50.94
2023-04-18T06:54:42.939Z,51.71
2023-04-18T06:57:11.119Z,52.16
2023-04-18T06:59:40.922Z,53.00
2023-04-18T07:02:09.037Z,54.01
2023-04-18T07:04:37.338Z,54.85
2023-04-18T07:07:05.440Z,55.64
2023-04-18T07:09:33.507Z,56.42
2023-04-18T07:12:01.463Z,57.02
2023-04-18T07:14:30.143Z,57.77
2023-04-18T07:17:01.150Z,58.38
2023-04-18T07:19:29.105Z,58.58
2023-04-18T07:21:57.237Z,59.05
2023-04-18T07:24:25.335Z,59.41
2023-04-18T07:26:55.040Z,59.00
2023-04-18T07:29:23.407Z,59.08
2023-04-18T07:31:52.181Z,58.97
2023-04-18T07:34:22.208Z,58.62
2023-04-18T07:36:50.264Z,58.25
2023-04-18T07:39:18.241Z,58.14
2023-04-18T07:41:46.333Z,58.29
2023-04-18T07:44:14.620Z,58.13
2023-04-18T07:46:42.985Z,57.84
2023-04-18T07:49:11.094Z,57.73
2023-04-18T07:51:39.310Z,57.32
2023-04-18T07:54:07.393Z,57.82
2023-04-18T07:56:35.358Z,57.94
2023-04-18T07:59:03.377Z,57.55
2023-04-18T08:01:31.724Z,57.36
2023-04-18T08:04:02.076Z,56.79
2023-04-18T08:06:30.905Z,56.65
2023-04-18T08:08:59.294Z,56.06
2023-04-18T08:11:27.607Z,56.32
2023-04-18T08:13:55.739Z,55.64
2023-04-18T08:16:23.852Z,55.40
2023-04-18T08:18:52.332Z,55.00
2023-04-18T08:21:20.556Z,54.06
2023-04-18T08:23:48.730Z,53.05
2023-04-18T08:26:16.766Z,53.12
2023-04-18T08:28:46.565Z,53.46
2023-04-18T08:31:16.474Z,53.35
2023-04-18T08:33:44.498Z,53.46
2023-04-18T08:36:12.567Z,54.11
2023-04-18T08:38:40.703Z,54.48
2023-04-18T08:41:08.878Z,54.75
2023-04-18T08:43:38.356Z,54.24
2023-04-18T08:46:06.910Z,52.80
2023-04-18T08:48:35.064Z,51.91
2023-04-18T08:51:03.226Z,53.16
2023-04-18T08:53:33.933Z,51.99
2023-04-18T08:56:03.289Z,52.85
2023-04-18T08:58:33.968Z,52.15
2023-04-18T09:01:02.647Z,51.41
2023-04-18T09:03:39.184Z,49.55
2023-04-18T09:06:18.805Z,48.62
2023-04-18T09:09:10.708Z,47.35
2023-04-18T09:11:38.647Z,45.04
2023-04-18T09:14:06.663Z,45.19
2023-04-18T09:16:50.924Z,45.07
2023-04-18T09:19:19.330Z,44.21
2023-04-18T09:21:58.418Z,47.97
2023-04-18T09:24:28.545Z,49.95
2023-04-18T09:26:58.750Z,49.57
2023-04-18T09:29:43.557Z,50.18
2023-04-18T09:32:11.563Z,50.19
2023-04-18T09:34:42.701Z,50.13
2023-04-18T09:37:13.681Z,50.32
2023-04-18T09:39:44.596Z,51.41
2023-04-18T09:42:12.858Z,52.06
2023-04-18T09:45:05.752Z,52.64
2023-04-18T09:47:36.530Z,52.29
2023-04-18T09:50:07.496Z,51.59
2023-04-18T09:52:38.011Z,51.99
2023-04-18T09:55:09.443Z,53.69
2023-04-18T09:57:41.855Z,54.19
2023-04-18T10:00:20.491Z,54.70
2023-04-18T10:02:59.957Z,54.99
2023-04-18T10:05:33.917Z,53.83
2023-04-18T10:08:02.614Z,52.52
2023-04-18T10:10:30.981Z,53.12
2023-04-18T10:13:01.505Z,55.21
2023-04-18T10:15:30.898Z,55.60
2023-04-18T10:18:09.263Z,55.78
2023-04-18T10:20:37.222Z,56.35
2023-04-18T10:23:36.288Z,56.58
2023-04-18T10:26:06.295Z,56.40
2023-04-18T10:28:57.477Z,57.00
2023-04-18T10:31:29.573Z,56.73
2023-04-18T10:36:30.458Z,56.96
2023-04-18T10:39:20.139Z,57.18
2023-04-18T10:41:50.726Z,57.35
2023-04-18T10:44:23.726Z,57.94
2023-04-18T10:46:52.116Z,57.52
2023-04-18T10:49:24.029Z,57.60
2023-04-18T10:51:59.469Z,57.93
2023-04-18T10:54:28.706Z,57.94
2023-04-18T10:56:58.703Z,57.58
2023-04-18T10:59:28.947Z,58.02
2023-04-18T11:02:03.869Z,58.97
2023-04-18T11:04:32.095Z,59.04
2023-04-18T11:07:00.336Z,58.92
2023-04-18T11:09:28.345Z,58.65
2023-04-18T11:12:10.787Z,58.44
2023-04-18T11:14:43.389Z,58.54
2023-04-18T11:17:22.094Z,58.50
2023-04-18T11:19:51.722Z,59.05
2023-04-18T11:22:19.683Z,59.69
2023-04-18T11:24:47.847Z,59.96
2023-04-18T11:27:16.273Z,60.73
2023-04-18T11:29:44.314Z,61.00
2023-04-18T11:32:12.742Z,61.14
2023-04-18T11:34:41.151Z,60.83
2023-04-18T11:37:09.197Z,61.23
2023-04-18T11:39:44.258Z,61.98
2023-04-18T11:42:12.634Z,62.18
2023-04-18T11:44:44.090Z,62.57
2023-04-18T11:47:25.008Z,63.12
2023-04-18T11:49:57.630Z,62.73
2023-04-18T11:52:31.460Z,62.65
2023-04-18T11:55:25.019Z,63.05
2023-04-18T11:57:57.171Z,63.42
2023-04-18T12:00:44.783Z,63.48
2023-04-18T12:03:17.345Z,63.71
2023-04-18T12:05:45.873Z,63.63
2023-04-18T12:08:23.152Z,63.85
2023-04-18T12:10:52.501Z,63.98
2023-04-18T12:13:31.646Z,64.24
2023-04-18T12:16:02.316Z,64.41
2023-04-18T12:18:31.719Z,64.20
2023-04-18T12:21:02.469Z,63.93
2023-04-18T12:23:35.625Z,63.63
2023-04-18T12:26:08.610Z,63.74
2023-04-18T12:28:36.790Z,63.77
2023-04-18T12:31:08.360Z,63.75
2023-04-18T12:33:36.874Z,63.76
2023-04-18T12:36:06.192Z,63.79
2023-04-18T12:38:35.516Z,63.78
2023-04-18T12:41:03.900Z,63.46
2023-04-18T12:43:32.061Z,64.03
2023-04-18T12:46:00.149Z,63.88
2023-04-18T12:48:28.382Z,64.10
2023-04-18T12:50:56.441Z,64.46
2023-04-18T12:53:24.550Z,64.21
2023-04-18T12:55:52.916Z,63.96
2023-04-18T12:58:21.660Z,63.91
2023-04-18T13:00:49.968Z,64.44
2023-04-18T13:03:18.192Z,64.58
2023-04-18T13:05:46.548Z,64.11
2023-04-18T13:08:17.773Z,64.02
2023-04-18T13:10:47.765Z,64.41
2023-04-18T13:13:16.143Z,65.03
2023-04-18T13:15:44.329Z,64.46
2023-04-18T13:18:12.499Z,63.50
2023-04-18T13:20:40.735Z,63.24
2023-04-18T13:23:08.882Z,63.10
2023-04-18T13:25:36.945Z,62.72
2023-04-18T13:28:05.564Z,62.14
2023-04-18T13:30:35.872Z,61.45
2023-04-18T13:33:04.316Z,61.17
2023-04-18T13:35:32.301Z,61.59
2023-04-18T13:38:00.410Z,61.61
2023-04-18T13:40:28.751Z,61.32
2023-04-18T13:42:59.493Z,61.32
2023-04-18T13:45:27.788Z,61.42
2023-04-18T13:47:56.260Z,61.60
2023-04-18T13:50:24.656Z,61.71
2023-04-18T13:52:54.653Z,62.20
2023-04-18T13:55:23.053Z,62.47
2023-04-18T13:57:51.353Z,62.68
2023-04-18T14:00:20.624Z,63.27
2023-04-18T14:02:49.738Z,63.42
2023-04-18T14:05:18.016Z,63.57
2023-04-18T14:07:46.026Z,63.94
2023-04-18T14:10:14.182Z,64.10
2023-04-18T14:12:48.320Z,64.10
2023-04-18T14:18:55.416Z,64.73
2023-04-18T14:21:23.582Z,65.00
2023-04-18T14:23:52.738Z,65.14
2023-04-18T14:26:21.514Z,65.34
2023-04-18T14:28:49.604Z,65.48
2023-04-18T14:31:17.570Z,65.37
2023-04-18T14:33:46.509Z,65.47
2023-04-18T14:36:17.340Z,64.88
2023-04-18T14:38:49.598Z,64.45
2023-04-18T14:41:17.642Z,64.00
2023-04-18T14:43:45.843Z,63.96
2023-04-18T14:46:16.676Z,64.02
2023-04-18T14:48:46.618Z,63.74
2023-04-18T14:51:16.201Z,63.51
2023-04-18T14:53:45.052Z,63.25
2023-04-18T14:56:13.055Z,63.15
2023-04-18T14:58:41.151Z,62.98
2023-04-18T15:01:09.200Z,62.76
2023-04-18T15:03:37.348Z,62.91
2023-04-18T15:06:05.718Z,62.72
2023-04-18T15:08:34.650Z,62.50
2023-04-18T15:11:07.620Z,62.46
2023-04-18T15:13:36.919Z,62.37
2023-04-18T15:16:05.403Z,62.29
2023-04-18T15:18:33.463Z,62.66
2023-04-18T15:21:01.684Z,62.68
2023-04-18T15:23:29.720Z,62.58
2023-04-18T15:25:57.781Z,62.82
2023-04-18T15:28:26.160Z,62.76
2023-04-18T15:30:54.542Z,62.33
2023-04-18T15:33:25.263Z,62.18
2023-04-18T15:35:55.871Z,62.59
2023-04-18T15:38:23.823Z,62.72
2023-04-18T15:40:51.899Z,62.94
2023-04-18T15:43:20.305Z,62.54
2023-04-18T15:45:49.205Z,62.37
2023-04-18T15:48:17.357Z,62.34
2023-04-18T15:50:51.298Z,62.06
2023-04-18T15:53:19.926Z,62.21
2023-04-18T15:55:47.895Z,62.22
2023-04-18T15:58:15.936Z,62.18
2023-04-18T16:00:44.505Z,62.35
2023-04-18T16:03:12.716Z,62.57
2023-04-18T16:05:40.838Z,62.80
2023-04-18T16:08:09.539Z,62.92
2023-04-18T16:10:38.214Z,62.83
2023-04-18T16:13:06.888Z,62.87
2023-04-18T16:15:35.981Z,62.79
2023-04-18T16:18:04.486Z,62.86
2023-04-18T16:20:33.509Z,62.92
2023-04-18T16:23:01.534Z,62.77
2023-04-18T16:25:29.490Z,62.18
2023-04-18T16:27:57.572Z,62.10
2023-04-18T16:30:25.528Z,61.83
2023-04-18T16:32:54.487Z,61.73
2023-04-18T16:35:22.666Z,61.41
2023-04-18T16:37:50.837Z,60.64
2023-04-18T16:40:18.779Z,59.92
2023-04-18T16:42:47.123Z,58.73
2023-04-18T16:45:15.162Z,57.13
2023-04-18T16:47:43.104Z,56.68
2023-04-18T16:50:11.398Z,56.41
2023-04-18T16:52:39.814Z,56.26
2023-04-18T16:55:08.118Z,56.06
2023-04-18T16:57:36.063Z,55.64
2023-04-18T17:00:05.150Z,55.76
2023-04-18T17:02:33.302Z,55.73
2023-04-18T17:05:01.519Z,55.91
2023-04-18T17:07:30.493Z,56.02
2023-04-18T17:09:58.658Z,56.04
2023-04-18T17:12:27.350Z,56.24
2023-04-18T17:14:55.332Z,56.52
2023-04-18T17:17:24.156Z,56.95
2023-04-18T17:19:52.173Z,57.73
2023-04-18T17:22:20.136Z,58.42
2023-04-18T17:24:48.126Z,58.71
2023-04-18T17:27:16.176Z,59.26
2023-04-18T17:29:44.152Z,59.79
2023-04-18T17:32:12.253Z,60.56
2023-04-18T17:34:40.291Z,61.35
2023-04-18T17:37:08.248Z,61.84
2023-04-18T17:39:36.219Z,62.12
2023-04-18T17:42:04.297Z,62.59
2023-04-18T17:44:32.301Z,62.98
2023-04-18T17:47:01.116Z,63.35
2023-04-18T17:49:34.677Z,63.68
2023-04-18T17:52:04.367Z,64.30
2023-04-18T17:54:32.837Z,64.53
2023-04-18T17:57:02.192Z,65.00
2023-04-18T17:59:30.613Z,65.01
2023-04-18T18:01:59.664Z,65.18
2023-04-18T18:04:28.014Z,65.22
2023-04-18T18:06:57.087Z,65.25
2023-04-18T18:09:25.317Z,65.69
2023-04-18T18:11:55.821Z,66.09
2023-04-18T18:14:24.466Z,66.34
2023-04-18T18:16:53.021Z,66.54
2023-04-18T18:19:21.128Z,66.83
2023-04-18T18:21:49.396Z,67.11
2023-04-18T18:24:18.790Z,66.99
2023-04-18T18:26:46.922Z,67.09
2023-04-18T18:29:14.970Z,67.06
2023-04-18T18:31:43.220Z,66.87
2023-04-18T18:34:11.570Z,66.94
2023-04-18T18:36:40.230Z,67.10
2023-04-18T18:39:08.306Z,67.22
2023-04-18T18:41:36.436Z,67.12
2023-04-18T18:44:04.490Z,66.98
2023-04-18T18:46:32.519Z,66.90
2023-04-18T18:49:00.513Z,66.93
2023-04-18T18:51:29.292Z,66.76
2023-04-18T18:53:57.388Z,66.74
2023-04-18T18:56:25.450Z,66.67
2023-04-18T18:58:55.664Z,66.46
2023-04-18T19:01:24.219Z,66.50
2023-04-18T19:03:52.623Z,66.50
2023-04-18T19:06:20.807Z,66.36
2023-04-18T19:08:48.748Z,66.51
2023-04-18T19:11:18.322Z,66.44
2023-04-18T19:13:46.351Z,66.41
2023-04-18T19:16:14.334Z,66.32
2023-04-18T19:18:47.072Z,66.30
2023-04-18T19:21:16.059Z,66.22
2023-04-18T19:23:44.073Z,66.20
2023-04-18T19:26:12.130Z,65.87
2023-04-18T19:28:40.388Z,65.87
2023-04-18T19:31:09.674Z,65.88
2023-04-18T19:33:38.356Z,65.89
2023-04-18T19:36:06.361Z,65.82
2023-04-18T19:38:34.939Z,65.67
2023-04-18T19:41:02.900Z,65.67
2023-04-18T19:43:30.879Z,65.50
2023-04-18T19:45:59.340Z,65.45
2023-04-18T19:48:27.298Z,65.33
2023-04-18T19:50:56.580Z,65.06
2023-04-18T19:53:24.795Z,64.96
2023-04-18T19:55:55.018Z,64.98
2023-04-18T19:58:49.530Z,64.50
2023-04-18T20:01:19.281Z,64.39
2023-04-18T20:03:48.324Z,64.27
2023-04-18T20:06:18.229Z,63.96
2023-04-18T20:08:46.309Z,63.70
2023-04-18T20:11:14.569Z,63.63
2023-04-18T20:13:42.892Z,63.71
2023-04-18T20:16:12.451Z,63.69
2023-04-18T20:18:41.768Z,63.79
2023-04-18T20:21:10.964Z,64.01
2023-04-18T20:23:41.801Z,64.22
2023-04-18T20:26:10.170Z,64.34
2023-04-18T20:28:38.114Z,64.38
2023-04-18T20:31:06.260Z,64.67
2023-04-18T20:33:34.675Z,64.87
2023-04-18T20:36:02.645Z,64.95
2023-04-18T20:38:30.721Z,65.17
2023-04-18T20:40:59.047Z,65.50
2023-04-18T20:43:28.119Z,65.83
2023-04-18T20:45:57.922Z,66.04
2023-04-18T20:48:26.193Z,66.09
2023-04-18T20:50:54.243Z,66.47
2023-04-18T20:53:25.292Z,66.55
2023-04-18T20:55:53.356Z,66.87
2023-04-18T20:58:21.431Z,66.99
2023-04-18T21:00:49.653Z,67.40
2023-04-18T21:03:17.704Z,67.43
2023-04-18T21:05:45.956Z,67.58
2023-04-18T21:08:14.553Z,67.88
2023-04-18T21:10:42.605Z,68.00
2023-04-18T21:13:12.755Z,68.32
2023-04-18T21:15:42.389Z,68.43
2023-04-18T21:18:10.810Z,68.50
2023-04-18T21:20:38.824Z,68.71
2023-04-18T21:23:06.844Z,68.91
2023-04-18T21:25:35.191Z,69.20
2023-04-18T21:28:03.196Z,69.33
2023-04-18T21:30:31.366Z,69.47
2023-04-18T21:32:59.411Z,69.63
2023-04-18T21:35:29.900Z,69.70
2023-04-18T21:37:58.212Z,69.90
2023-04-18T21:40:27.017Z,70.04
2023-04-18T21:42:54.993Z,70.22
2023-04-18T21:45:23.233Z,70.27
2023-04-18T21:47:52.640Z,70.59
2023-04-18T21:50:20.861Z,70.79
2023-04-18T21:52:48.810Z,71.06
2023-04-18T21:55:17.901Z,71.32
2023-04-18T21:57:45.973Z,71.55
2023-04-18T22:00:14.310Z,71.96
2023-04-18T22:02:42.337Z,72.36
2023-04-18T22:05:12.979Z,72.52
2023-04-18T22:07:54.393Z,72.81
2023-04-18T22:10:25.749Z,72.92
2023-04-18T22:12:58.564Z,73.33
2023-04-18T22:15:30.679Z,73.56
2023-04-18T22:17:59.271Z,73.66
2023-04-18T22:20:27.290Z,73.72
2023-04-18T22:22:55.311Z,73.84
2023-04-18T22:25:23.345Z,73.94
2023-04-18T22:27:51.286Z,74.11
2023-04-18T22:30:19.234Z,74.11
2023-04-18T22:32:47.780Z,74.29
2023-04-18T22:35:16.062Z,74.59
2023-04-18T22:37:44.112Z,74.72
2023-04-18T22:40:13.078Z,74.59
2023-04-18T22:42:41.007Z,74.68
2023-04-18T22:45:09.532Z,74.91
2023-04-18T22:47:37.554Z,74.96
2023-04-18T22:50:06.363Z,75.01
2023-04-18T22:52:34.958Z,74.96
2023-04-18T22:55:03.491Z,74.79
2023-04-18T22:57:31.522Z,74.55
2023-04-18T22:59:59.522Z,74.46
2023-04-18T23:02:27.777Z,74.21
2023-04-18T23:04:59.203Z,74.05
2023-04-18T23:07:27.111Z,73.88
2023-04-18T23:09:55.081Z,73.64
2023-04-18T23:12:23.116Z,73.53
2023-04-18T23:14:51.157Z,73.18
2023-04-18T23:17:19.157Z,73.02
2023-04-18T23:19:47.230Z,73.24
2023-04-18T23:22:15.207Z,73.27
2023-04-18T23:24:43.128Z,73.36
2023-04-18T23:27:11.129Z,73.37
2023-04-18T23:29:39.626Z,73.55
2023-04-18T23:32:07.709Z,73.63
2023-04-18T23:34:35.752Z,73.83
2023-04-18T23:37:03.740Z,73.78
2023-04-18T23:39:31.706Z,73.82
2023-04-18T23:41:59.671Z,73.85
2023-04-18T23:44:27.680Z,73.94
2023-04-18T23:46:55.742Z,73.96
2023-04-18T23:49:23.962Z,73.48
2023-04-18T23:51:51.863Z,73.45
2023-04-18T23:54:19.905Z,73.53
2023-04-18T23:56:47.821Z,73.50
2023-04-18T23:59:15.842Z,73.45
